sensor_id;sensor_type;location;lat;lon;timestamp;P1;durP1;ratioP1;P2;durP2;ratioP2
38196;SDS011;26543;51.976;4.616;2022-09-09T00:00:40;5.07;;;2.10;;
38196;SDS011;26543;51.976;4.616;2022-09-09T00:03:14;3.95;;;2.58;;
38196;SDS011;26543;51.976;4.616;2022-09-09T00:05:44;3.63;;;2.05;;
38196;SDS011;26543;51.976;4.616;2022-09-09T00:08:24;2.95;;;1.77;;
38196;SDS011;26543;51.976;4.616;2022-09-09T00:11:04;2.70;;;1.60;;
38196;SDS011;26543;51.976;4.616;2022-09-09T00:13:50;2.17;;;1.50;;
38196;SDS011;26543;51.976;4.616;2022-09-09T00:21:38;3.03;;;2.22;;
38196;SDS011;26543;51.976;4.616;2022-09-09T00:24:14;3.63;;;2.40;;
38196;SDS011;26543;51.976;4.616;2022-09-09T00:26:51;4.75;;;2.00;;
38196;SDS011;26543;51.976;4.616;2022-09-09T00:31:59;5.25;;;2.90;;
38196;SDS011;26543;51.976;4.616;2022-09-09T00:34:37;5.97;;;2.50;;
38196;SDS011;26543;51.976;4.616;2022-09-09T00:37:09;5.22;;;2.90;;
38196;SDS011;26543;51.976;4.616;2022-09-09T00:39:37;4.25;;;2.80;;
38196;SDS011;26543;51.976;4.616;2022-09-09T00:44:37;5.57;;;3.05;;
38196;SDS011;26543;51.976;4.616;2022-09-09T00:47:12;5.40;;;2.83;;
38196;SDS011;26543;51.976;4.616;2022-09-09T00:50:01;4.75;;;3.33;;
38196;SDS011;26543;51.976;4.616;2022-09-09T00:58:24;4.43;;;2.92;;
38196;SDS011;26543;51.976;4.616;2022-09-09T01:00:53;6.90;;;2.95;;
38196;SDS011;26543;51.976;4.616;2022-09-09T01:03:33;4.95;;;3.13;;
38196;SDS011;26543;51.976;4.616;2022-09-09T01:09:18;3.60;;;2.58;;
38196;SDS011;26543;51.976;4.616;2022-09-09T01:17:31;6.35;;;3.35;;
38196;SDS011;26543;51.976;4.616;2022-09-09T01:28:29;2.95;;;2.15;;
38196;SDS011;26543;51.976;4.616;2022-09-09T01:30:57;5.40;;;2.40;;
38196;SDS011;26543;51.976;4.616;2022-09-09T01:33:23;2.83;;;2.33;;
38196;SDS011;26543;51.976;4.616;2022-09-09T01:35:53;2.80;;;1.90;;
38196;SDS011;26543;51.976;4.616;2022-09-09T01:38:23;3.28;;;1.83;;
38196;SDS011;26543;51.976;4.616;2022-09-09T01:40:50;8.13;;;2.03;;
38196;SDS011;26543;51.976;4.616;2022-09-09T01:43:18;5.53;;;2.40;;
38196;SDS011;26543;51.976;4.616;2022-09-09T01:45:44;2.90;;;1.77;;
38196;SDS011;26543;51.976;4.616;2022-09-09T01:48:14;2.60;;;1.50;;
38196;SDS011;26543;51.976;4.616;2022-09-09T01:50:40;2.58;;;1.67;;
38196;SDS011;26543;51.976;4.616;2022-09-09T01:53:06;4.03;;;2.28;;
38196;SDS011;26543;51.976;4.616;2022-09-09T01:55:32;3.28;;;1.92;;
38196;SDS011;26543;51.976;4.616;2022-09-09T02:00:54;2.90;;;1.70;;
38196;SDS011;26543;51.976;4.616;2022-09-09T02:03:31;3.55;;;2.08;;
38196;SDS011;26543;51.976;4.616;2022-09-09T02:06:17;3.75;;;2.03;;
38196;SDS011;26543;51.976;4.616;2022-09-09T02:08:52;6.28;;;2.00;;
38196;SDS011;26543;51.976;4.616;2022-09-09T02:11:24;4.70;;;2.72;;
38196;SDS011;26543;51.976;4.616;2022-09-09T02:14:02;4.88;;;2.13;;
38196;SDS011;26543;51.976;4.616;2022-09-09T02:16:42;3.45;;;1.88;;
38196;SDS011;26543;51.976;4.616;2022-09-09T02:22:13;6.47;;;2.28;;
38196;SDS011;26543;51.976;4.616;2022-09-09T02:24:42;3.13;;;1.58;;
38196;SDS011;26543;51.976;4.616;2022-09-09T02:27:09;3.80;;;2.50;;
38196;SDS011;26543;51.976;4.616;2022-09-09T02:29:38;5.63;;;1.83;;
38196;SDS011;26543;51.976;4.616;2022-09-09T02:32:07;4.57;;;2.58;;
38196;SDS011;26543;51.976;4.616;2022-09-09T02:37:05;5.28;;;2.30;;
38196;SDS011;26543;51.976;4.616;2022-09-09T02:39:33;6.50;;;2.30;;
38196;SDS011;26543;51.976;4.616;2022-09-09T02:41:58;3.38;;;2.08;;
38196;SDS011;26543;51.976;4.616;2022-09-09T02:44:24;4.68;;;2.08;;
38196;SDS011;26543;51.976;4.616;2022-09-09T02:52:15;2.92;;;1.90;;
38196;SDS011;26543;51.976;4.616;2022-09-09T02:54:43;6.00;;;2.70;;
38196;SDS011;26543;51.976;4.616;2022-09-09T02:59:44;3.92;;;2.40;;
38196;SDS011;26543;51.976;4.616;2022-09-09T03:02:10;2.50;;;1.77;;
38196;SDS011;26543;51.976;4.616;2022-09-09T03:04:36;5.75;;;1.98;;
38196;SDS011;26543;51.976;4.616;2022-09-09T03:07:03;2.97;;;1.90;;
38196;SDS011;26543;51.976;4.616;2022-09-09T03:09:28;8.27;;;2.67;;
38196;SDS011;26543;51.976;4.616;2022-09-09T03:11:54;5.72;;;2.45;;
38196;SDS011;26543;51.976;4.616;2022-09-09T03:14:20;4.05;;;2.53;;
38196;SDS011;26543;51.976;4.616;2022-09-09T03:16:49;3.90;;;2.37;;
38196;SDS011;26543;51.976;4.616;2022-09-09T03:19:15;6.93;;;2.00;;
38196;SDS011;26543;51.976;4.616;2022-09-09T03:21:41;5.40;;;2.00;;
38196;SDS011;26543;51.976;4.616;2022-09-09T03:24:06;4.05;;;2.00;;
38196;SDS011;26543;51.976;4.616;2022-09-09T03:26:32;7.72;;;1.92;;
38196;SDS011;26543;51.976;4.616;2022-09-09T03:28:58;2.83;;;1.92;;
38196;SDS011;26543;51.976;4.616;2022-09-09T03:31:25;5.85;;;1.88;;
38196;SDS011;26543;51.976;4.616;2022-09-09T03:33:51;5.55;;;1.85;;
38196;SDS011;26543;51.976;4.616;2022-09-09T03:36:17;2.58;;;1.52;;
38196;SDS011;26543;51.976;4.616;2022-09-09T03:38:42;5.03;;;1.95;;
38196;SDS011;26543;51.976;4.616;2022-09-09T03:41:07;5.72;;;1.50;;
38196;SDS011;26543;51.976;4.616;2022-09-09T03:43:33;4.32;;;1.70;;
38196;SDS011;26543;51.976;4.616;2022-09-09T03:45:59;5.85;;;1.02;;
38196;SDS011;26543;51.976;4.616;2022-09-09T03:48:25;3.63;;;1.48;;
38196;SDS011;26543;51.976;4.616;2022-09-09T03:50:53;2.00;;;1.35;;
38196;SDS011;26543;51.976;4.616;2022-09-09T03:53:19;5.68;;;1.67;;
38196;SDS011;26543;51.976;4.616;2022-09-09T03:55:48;5.60;;;1.75;;
38196;SDS011;26543;51.976;4.616;2022-09-09T03:58:17;2.45;;;1.23;;
38196;SDS011;26543;51.976;4.616;2022-09-09T04:00:43;4.75;;;1.60;;
38196;SDS011;26543;51.976;4.616;2022-09-09T04:03:17;4.40;;;1.35;;
38196;SDS011;26543;51.976;4.616;2022-09-09T04:05:43;2.47;;;1.63;;
38196;SDS011;26543;51.976;4.616;2022-09-09T04:08:08;2.20;;;1.00;;
38196;SDS011;26543;51.976;4.616;2022-09-09T04:10:34;1.58;;;1.17;;
38196;SDS011;26543;51.976;4.616;2022-09-09T04:13:03;5.05;;;1.77;;
38196;SDS011;26543;51.976;4.616;2022-09-09T04:15:29;5.47;;;1.92;;
38196;SDS011;26543;51.976;4.616;2022-09-09T04:17:56;1.48;;;1.08;;
38196;SDS011;26543;51.976;4.616;2022-09-09T04:20:21;3.35;;;1.00;;
38196;SDS011;26543;51.976;4.616;2022-09-09T04:22:47;4.43;;;1.40;;
38196;SDS011;26543;51.976;4.616;2022-09-09T04:25:12;3.85;;;1.77;;
38196;SDS011;26543;51.976;4.616;2022-09-09T04:27:38;2.13;;;0.93;;
38196;SDS011;26543;51.976;4.616;2022-09-09T04:30:03;2.30;;;1.20;;
38196;SDS011;26543;51.976;4.616;2022-09-09T04:32:29;2.88;;;1.65;;
38196;SDS011;26543;51.976;4.616;2022-09-09T04:34:54;2.60;;;1.73;;
38196;SDS011;26543;51.976;4.616;2022-09-09T04:37:20;3.03;;;1.13;;
38196;SDS011;26543;51.976;4.616;2022-09-09T04:39:45;3.97;;;1.40;;
38196;SDS011;26543;51.976;4.616;2022-09-09T04:42:11;3.90;;;1.20;;
38196;SDS011;26543;51.976;4.616;2022-09-09T04:44:37;5.05;;;1.48;;
38196;SDS011;26543;51.976;4.616;2022-09-09T04:47:03;2.30;;;1.10;;
38196;SDS011;26543;51.976;4.616;2022-09-09T04:49:28;2.80;;;1.30;;
38196;SDS011;26543;51.976;4.616;2022-09-09T04:51:55;6.90;;;1.52;;
38196;SDS011;26543;51.976;4.616;2022-09-09T04:54:21;2.97;;;1.17;;
38196;SDS011;26543;51.976;4.616;2022-09-09T04:56:46;5.50;;;1.45;;
38196;SDS011;26543;51.976;4.616;2022-09-09T04:59:11;3.20;;;1.90;;
38196;SDS011;26543;51.976;4.616;2022-09-09T05:01:37;1.95;;;1.02;;
38196;SDS011;26543;51.976;4.616;2022-09-09T05:04:03;1.55;;;1.20;;
38196;SDS011;26543;51.976;4.616;2022-09-09T05:06:28;2.22;;;1.17;;
38196;SDS011;26543;51.976;4.616;2022-09-09T05:08:56;3.08;;;1.27;;
38196;SDS011;26543;51.976;4.616;2022-09-09T05:11:24;3.50;;;1.10;;
38196;SDS011;26543;51.976;4.616;2022-09-09T05:13:51;2.05;;;1.15;;
38196;SDS011;26543;51.976;4.616;2022-09-09T05:16:18;4.57;;;1.45;;
38196;SDS011;26543;51.976;4.616;2022-09-09T05:18:44;7.63;;;1.55;;
38196;SDS011;26543;51.976;4.616;2022-09-09T05:21:11;2.95;;;1.80;;
38196;SDS011;26543;51.976;4.616;2022-09-09T05:23:38;3.22;;;1.25;;
38196;SDS011;26543;51.976;4.616;2022-09-09T05:26:04;3.55;;;1.52;;
38196;SDS011;26543;51.976;4.616;2022-09-09T05:28:30;3.65;;;1.60;;
38196;SDS011;26543;51.976;4.616;2022-09-09T05:30:57;3.65;;;1.23;;
38196;SDS011;26543;51.976;4.616;2022-09-09T05:33:23;4.05;;;1.55;;
38196;SDS011;26543;51.976;4.616;2022-09-09T05:35:54;2.30;;;1.38;;
38196;SDS011;26543;51.976;4.616;2022-09-09T05:38:21;2.38;;;1.63;;
38196;SDS011;26543;51.976;4.616;2022-09-09T05:40:49;2.15;;;0.98;;
38196;SDS011;26543;51.976;4.616;2022-09-09T05:43:15;6.38;;;2.13;;
38196;SDS011;26543;51.976;4.616;2022-09-09T05:45:40;1.52;;;1.02;;
38196;SDS011;26543;51.976;4.616;2022-09-09T05:48:05;2.05;;;1.13;;
38196;SDS011;26543;51.976;4.616;2022-09-09T05:50:31;2.65;;;1.20;;
38196;SDS011;26543;51.976;4.616;2022-09-09T05:52:56;4.57;;;1.27;;
38196;SDS011;26543;51.976;4.616;2022-09-09T05:55:22;1.77;;;0.98;;
38196;SDS011;26543;51.976;4.616;2022-09-09T05:57:48;4.47;;;1.58;;
38196;SDS011;26543;51.976;4.616;2022-09-09T06:00:14;4.10;;;0.93;;
38196;SDS011;26543;51.976;4.616;2022-09-09T06:02:41;1.75;;;0.80;;
38196;SDS011;26543;51.976;4.616;2022-09-09T06:05:06;3.83;;;1.27;;
38196;SDS011;26543;51.976;4.616;2022-09-09T06:07:33;3.47;;;1.25;;
38196;SDS011;26543;51.976;4.616;2022-09-09T06:09:58;4.47;;;1.55;;
38196;SDS011;26543;51.976;4.616;2022-09-09T06:12:25;3.53;;;1.08;;
38196;SDS011;26543;51.976;4.616;2022-09-09T06:14:50;1.33;;;1.10;;
38196;SDS011;26543;51.976;4.616;2022-09-09T06:17:16;3.83;;;1.50;;
38196;SDS011;26543;51.976;4.616;2022-09-09T06:19:42;2.88;;;0.80;;
38196;SDS011;26543;51.976;4.616;2022-09-09T06:22:07;2.90;;;0.98;;
38196;SDS011;26543;51.976;4.616;2022-09-09T06:24:37;2.08;;;1.08;;
38196;SDS011;26543;51.976;4.616;2022-09-09T06:27:02;0.90;;;0.65;;
38196;SDS011;26543;51.976;4.616;2022-09-09T06:29:28;2.55;;;1.20;;
38196;SDS011;26543;51.976;4.616;2022-09-09T06:31:53;6.15;;;1.65;;
38196;SDS011;26543;51.976;4.616;2022-09-09T06:34:19;7.13;;;1.23;;
38196;SDS011;26543;51.976;4.616;2022-09-09T06:36:44;1.75;;;0.98;;
38196;SDS011;26543;51.976;4.616;2022-09-09T06:39:10;4.35;;;1.23;;
38196;SDS011;26543;51.976;4.616;2022-09-09T06:41:36;1.73;;;0.95;;
38196;SDS011;26543;51.976;4.616;2022-09-09T06:44:03;6.40;;;1.33;;
38196;SDS011;26543;51.976;4.616;2022-09-09T06:46:29;6.75;;;1.45;;
38196;SDS011;26543;51.976;4.616;2022-09-09T06:48:58;2.30;;;1.20;;
38196;SDS011;26543;51.976;4.616;2022-09-09T06:51:34;2.30;;;1.25;;
38196;SDS011;26543;51.976;4.616;2022-09-09T06:54:02;3.33;;;1.17;;
38196;SDS011;26543;51.976;4.616;2022-09-09T06:56:29;2.05;;;0.88;;
38196;SDS011;26543;51.976;4.616;2022-09-09T06:59:03;5.05;;;1.63;;
38196;SDS011;26543;51.976;4.616;2022-09-09T07:01:30;3.63;;;2.17;;
38196;SDS011;26543;51.976;4.616;2022-09-09T07:03:58;4.38;;;1.50;;
38196;SDS011;26543;51.976;4.616;2022-09-09T07:06:26;3.60;;;1.40;;
38196;SDS011;26543;51.976;4.616;2022-09-09T07:08:54;3.10;;;1.30;;
38196;SDS011;26543;51.976;4.616;2022-09-09T07:11:21;2.42;;;1.50;;
38196;SDS011;26543;51.976;4.616;2022-09-09T07:13:48;3.05;;;1.73;;
38196;SDS011;26543;51.976;4.616;2022-09-09T07:16:18;3.90;;;1.38;;
38196;SDS011;26543;51.976;4.616;2022-09-09T07:18:45;4.53;;;1.42;;
38196;SDS011;26543;51.976;4.616;2022-09-09T07:21:11;2.17;;;1.13;;
38196;SDS011;26543;51.976;4.616;2022-09-09T07:23:38;6.32;;;1.58;;
38196;SDS011;26543;51.976;4.616;2022-09-09T07:26:11;4.05;;;1.20;;
38196;SDS011;26543;51.976;4.616;2022-09-09T07:28:38;3.60;;;1.98;;
38196;SDS011;26543;51.976;4.616;2022-09-09T07:31:06;3.83;;;1.75;;
38196;SDS011;26543;51.976;4.616;2022-09-09T07:33:38;4.38;;;1.90;;
38196;SDS011;26543;51.976;4.616;2022-09-09T07:36:09;3.85;;;1.48;;
38196;SDS011;26543;51.976;4.616;2022-09-09T07:38:42;3.45;;;1.90;;
38196;SDS011;26543;51.976;4.616;2022-09-09T07:41:11;7.35;;;2.10;;
38196;SDS011;26543;51.976;4.616;2022-09-09T07:43:39;6.43;;;3.08;;
38196;SDS011;26543;51.976;4.616;2022-09-09T07:46:10;3.97;;;1.80;;
38196;SDS011;26543;51.976;4.616;2022-09-09T07:48:37;3.08;;;2.22;;
38196;SDS011;26543;51.976;4.616;2022-09-09T07:51:10;3.53;;;1.85;;
38196;SDS011;26543;51.976;4.616;2022-09-09T07:53:37;10.85;;;1.92;;
38196;SDS011;26543;51.976;4.616;2022-09-09T07:56:04;4.05;;;2.60;;
38196;SDS011;26543;51.976;4.616;2022-09-09T07:58:32;3.28;;;2.35;;
38196;SDS011;26543;51.976;4.616;2022-09-09T08:00:57;3.20;;;1.70;;
38196;SDS011;26543;51.976;4.616;2022-09-09T08:03:23;4.05;;;2.03;;
38196;SDS011;26543;51.976;4.616;2022-09-09T08:05:48;6.20;;;1.98;;
38196;SDS011;26543;51.976;4.616;2022-09-09T08:08:14;5.20;;;2.33;;
38196;SDS011;26543;51.976;4.616;2022-09-09T08:10:41;6.53;;;2.75;;
38196;SDS011;26543;51.976;4.616;2022-09-09T08:13:06;3.25;;;1.83;;
38196;SDS011;26543;51.976;4.616;2022-09-09T08:15:33;2.97;;;2.08;;
38196;SDS011;26543;51.976;4.616;2022-09-09T08:17:59;2.88;;;2.00;;
38196;SDS011;26543;51.976;4.616;2022-09-09T08:20:30;4.97;;;2.38;;
38196;SDS011;26543;51.976;4.616;2022-09-09T08:22:56;3.00;;;1.67;;
38196;SDS011;26543;51.976;4.616;2022-09-09T08:25:21;5.32;;;2.05;;
38196;SDS011;26543;51.976;4.616;2022-09-09T08:27:46;6.03;;;1.92;;
38196;SDS011;26543;51.976;4.616;2022-09-09T08:30:12;2.88;;;1.65;;
38196;SDS011;26543;51.976;4.616;2022-09-09T08:32:40;7.65;;;1.98;;
38196;SDS011;26543;51.976;4.616;2022-09-09T08:35:06;3.53;;;1.88;;
38196;SDS011;26543;51.976;4.616;2022-09-09T08:37:32;5.38;;;1.80;;
38196;SDS011;26543;51.976;4.616;2022-09-09T08:39:58;7.07;;;2.15;;
38196;SDS011;26543;51.976;4.616;2022-09-09T08:47:47;6.40;;;2.08;;
38196;SDS011;26543;51.976;4.616;2022-09-09T08:50:26;2.88;;;1.35;;
38196;SDS011;26543;51.976;4.616;2022-09-09T09:09:08;5.55;;;2.50;;
38196;SDS011;26543;51.976;4.616;2022-09-09T09:11:56;5.53;;;2.55;;
38196;SDS011;26543;51.976;4.616;2022-09-09T09:14:25;5.07;;;2.00;;
38196;SDS011;26543;51.976;4.616;2022-09-09T09:16:54;3.70;;;1.85;;
38196;SDS011;26543;51.976;4.616;2022-09-09T09:19:23;3.20;;;2.00;;
38196;SDS011;26543;51.976;4.616;2022-09-09T09:30:26;5.55;;;2.83;;
38196;SDS011;26543;51.976;4.616;2022-09-09T09:35:42;4.75;;;2.13;;
38196;SDS011;26543;51.976;4.616;2022-09-09T09:38:18;3.65;;;2.30;;
38196;SDS011;26543;51.976;4.616;2022-09-09T09:40:53;5.40;;;2.65;;
38196;SDS011;26543;51.976;4.616;2022-09-09T09:43:29;5.57;;;2.10;;
38196;SDS011;26543;51.976;4.616;2022-09-09T09:45:59;4.30;;;2.00;;
38196;SDS011;26543;51.976;4.616;2022-09-09T09:48:28;4.78;;;2.03;;
38196;SDS011;26543;51.976;4.616;2022-09-09T09:50:57;6.60;;;2.53;;
38196;SDS011;26543;51.976;4.616;2022-09-09T09:53:28;3.78;;;1.77;;
38196;SDS011;26543;51.976;4.616;2022-09-09T09:56:00;4.03;;;1.48;;
38196;SDS011;26543;51.976;4.616;2022-09-09T09:58:29;1.65;;;1.30;;
38196;SDS011;26543;51.976;4.616;2022-09-09T10:00:59;2.75;;;1.60;;
38196;SDS011;26543;51.976;4.616;2022-09-09T10:05:55;3.28;;;1.52;;
38196;SDS011;26543;51.976;4.616;2022-09-09T10:08:22;1.95;;;0.80;;
38196;SDS011;26543;51.976;4.616;2022-09-09T10:10:54;3.28;;;1.73;;
38196;SDS011;26543;51.976;4.616;2022-09-09T10:13:34;6.05;;;1.50;;
38196;SDS011;26543;51.976;4.616;2022-09-09T10:16:30;3.67;;;1.27;;
38196;SDS011;26543;51.976;4.616;2022-09-09T10:19:29;5.20;;;1.35;;
38196;SDS011;26543;51.976;4.616;2022-09-09T10:24:39;7.78;;;1.90;;
38196;SDS011;26543;51.976;4.616;2022-09-09T10:27:19;4.43;;;1.38;;
38196;SDS011;26543;51.976;4.616;2022-09-09T10:32:38;2.33;;;1.70;;
38196;SDS011;26543;51.976;4.616;2022-09-09T10:35:10;1.85;;;1.58;;
38196;SDS011;26543;51.976;4.616;2022-09-09T11:00:16;2.78;;;1.60;;
38196;SDS011;26543;51.976;4.616;2022-09-09T11:02:47;6.00;;;1.80;;
38196;SDS011;26543;51.976;4.616;2022-09-09T11:05:40;2.40;;;1.30;;
38196;SDS011;26543;51.976;4.616;2022-09-09T11:13:32;2.63;;;1.60;;
38196;SDS011;26543;51.976;4.616;2022-09-09T11:16:20;2.30;;;1.38;;
38196;SDS011;26543;51.976;4.616;2022-09-09T11:18:51;4.53;;;1.58;;
38196;SDS011;26543;51.976;4.616;2022-09-09T11:21:32;3.47;;;1.48;;
38196;SDS011;26543;51.976;4.616;2022-09-09T11:24:10;3.15;;;1.35;;
38196;SDS011;26543;51.976;4.616;2022-09-09T11:30:18;1.92;;;1.10;;
38196;SDS011;26543;51.976;4.616;2022-09-09T11:41:10;5.75;;;1.40;;
38196;SDS011;26543;51.976;4.616;2022-09-09T11:46:13;1.30;;;1.10;;
38196;SDS011;26543;51.976;4.616;2022-09-09T11:51:25;3.50;;;1.48;;
38196;SDS011;26543;51.976;4.616;2022-09-09T11:56:25;5.47;;;2.00;;
38196;SDS011;26543;51.976;4.616;2022-09-09T11:58:54;3.30;;;1.40;;
38196;SDS011;26543;51.976;4.616;2022-09-09T12:01:30;4.22;;;2.50;;
38196;SDS011;26543;51.976;4.616;2022-09-09T12:06:52;2.85;;;1.75;;
38196;SDS011;26543;51.976;4.616;2022-09-09T12:11:52;3.85;;;2.25;;
38196;SDS011;26543;51.976;4.616;2022-09-09T12:17:20;3.88;;;1.80;;
38196;SDS011;26543;51.976;4.616;2022-09-09T12:19:59;4.45;;;2.13;;
38196;SDS011;26543;51.976;4.616;2022-09-09T12:25:26;3.83;;;2.53;;
38196;SDS011;26543;51.976;4.616;2022-09-09T12:30:49;5.13;;;2.60;;
38196;SDS011;26543;51.976;4.616;2022-09-09T12:33:23;3.17;;;2.38;;
38196;SDS011;26543;51.976;4.616;2022-09-09T12:35:51;5.90;;;2.33;;
38196;SDS011;26543;51.976;4.616;2022-09-09T12:38:31;4.75;;;2.55;;
38196;SDS011;26543;51.976;4.616;2022-09-09T12:41:00;4.70;;;2.38;;
38196;SDS011;26543;51.976;4.616;2022-09-09T12:43:26;2.83;;;1.42;;
38196;SDS011;26543;51.976;4.616;2022-09-09T12:45:54;3.55;;;1.60;;
38196;SDS011;26543;51.976;4.616;2022-09-09T12:48:35;6.05;;;1.92;;
38196;SDS011;26543;51.976;4.616;2022-09-09T12:51:05;5.65;;;1.98;;
38196;SDS011;26543;51.976;4.616;2022-09-09T12:53:42;2.78;;;1.85;;
38196;SDS011;26543;51.976;4.616;2022-09-09T12:56:19;5.20;;;2.10;;
38196;SDS011;26543;51.976;4.616;2022-09-09T12:58:47;3.40;;;1.38;;
38196;SDS011;26543;51.976;4.616;2022-09-09T13:03:55;3.00;;;1.65;;
38196;SDS011;26543;51.976;4.616;2022-09-09T13:06:23;3.88;;;1.77;;
38196;SDS011;26543;51.976;4.616;2022-09-09T13:08:53;6.40;;;1.80;;
38196;SDS011;26543;51.976;4.616;2022-09-09T13:11:24;3.40;;;1.70;;
38196;SDS011;26543;51.976;4.616;2022-09-09T13:14:03;1.77;;;1.23;;
38196;SDS011;26543;51.976;4.616;2022-09-09T13:16:30;3.00;;;1.23;;
38196;SDS011;26543;51.976;4.616;2022-09-09T13:18:57;4.55;;;2.15;;
38196;SDS011;26543;51.976;4.616;2022-09-09T13:21:34;1.85;;;1.27;;
38196;SDS011;26543;51.976;4.616;2022-09-09T13:24:02;3.45;;;1.63;;
38196;SDS011;26543;51.976;4.616;2022-09-09T13:26:32;1.88;;;1.05;;
38196;SDS011;26543;51.976;4.616;2022-09-09T13:29:16;1.30;;;0.80;;
38196;SDS011;26543;51.976;4.616;2022-09-09T13:31:43;1.77;;;0.77;;
38196;SDS011;26543;51.976;4.616;2022-09-09T13:34:51;1.77;;;0.90;;
38196;SDS011;26543;51.976;4.616;2022-09-09T13:37:19;1.35;;;0.80;;
38196;SDS011;26543;51.976;4.616;2022-09-09T13:39:57;2.28;;;0.85;;
38196;SDS011;26543;51.976;4.616;2022-09-09T13:42:26;1.95;;;0.82;;
38196;SDS011;26543;51.976;4.616;2022-09-09T13:44:57;2.65;;;1.20;;
38196;SDS011;26543;51.976;4.616;2022-09-09T13:47:29;1.65;;;0.70;;
38196;SDS011;26543;51.976;4.616;2022-09-09T13:49:57;2.05;;;0.90;;
38196;SDS011;26543;51.976;4.616;2022-09-09T13:52:22;4.63;;;0.80;;
38196;SDS011;26543;51.976;4.616;2022-09-09T13:54:49;1.67;;;0.90;;
38196;SDS011;26543;51.976;4.616;2022-09-09T13:57:20;1.88;;;0.70;;
38196;SDS011;26543;51.976;4.616;2022-09-09T13:59:50;1.38;;;0.70;;
38196;SDS011;26543;51.976;4.616;2022-09-09T14:02:16;1.77;;;1.02;;
38196;SDS011;26543;51.976;4.616;2022-09-09T14:04:42;1.50;;;0.95;;
38196;SDS011;26543;51.976;4.616;2022-09-09T14:07:09;3.17;;;1.33;;
38196;SDS011;26543;51.976;4.616;2022-09-09T14:09:37;3.75;;;0.85;;
38196;SDS011;26543;51.976;4.616;2022-09-09T14:12:03;1.48;;;0.90;;
38196;SDS011;26543;51.976;4.616;2022-09-09T14:14:29;1.17;;;0.80;;
38196;SDS011;26543;51.976;4.616;2022-09-09T14:16:55;1.98;;;1.20;;
38196;SDS011;26543;51.976;4.616;2022-09-09T14:19:20;1.17;;;0.80;;
38196;SDS011;26543;51.976;4.616;2022-09-09T14:21:45;1.38;;;0.70;;
38196;SDS011;26543;51.976;4.616;2022-09-09T14:24:11;4.20;;;0.88;;
38196;SDS011;26543;51.976;4.616;2022-09-09T14:26:37;0.95;;;0.75;;
38196;SDS011;26543;51.976;4.616;2022-09-09T14:29:03;2.85;;;1.00;;
38196;SDS011;26543;51.976;4.616;2022-09-09T14:31:28;1.15;;;0.93;;
38196;SDS011;26543;51.976;4.616;2022-09-09T14:33:54;2.42;;;0.95;;
38196;SDS011;26543;51.976;4.616;2022-09-09T14:36:20;2.58;;;1.38;;
38196;SDS011;26543;51.976;4.616;2022-09-09T14:38:46;2.17;;;1.17;;
38196;SDS011;26543;51.976;4.616;2022-09-09T14:41:12;4.78;;;1.58;;
38196;SDS011;26543;51.976;4.616;2022-09-09T14:43:41;2.03;;;1.02;;
38196;SDS011;26543;51.976;4.616;2022-09-09T14:46:08;1.90;;;1.10;;
38196;SDS011;26543;51.976;4.616;2022-09-09T14:48:36;2.75;;;1.17;;
38196;SDS011;26543;51.976;4.616;2022-09-09T14:51:06;1.20;;;0.73;;
38196;SDS011;26543;51.976;4.616;2022-09-09T14:53:37;1.67;;;1.05;;
38196;SDS011;26543;51.976;4.616;2022-09-09T14:56:11;1.25;;;0.63;;
38196;SDS011;26543;51.976;4.616;2022-09-09T14:58:38;0.95;;;0.47;;
38196;SDS011;26543;51.976;4.616;2022-09-09T15:01:05;2.33;;;1.02;;
38196;SDS011;26543;51.976;4.616;2022-09-09T15:03:35;3.20;;;0.70;;
38196;SDS011;26543;51.976;4.616;2022-09-09T15:06:08;1.17;;;0.57;;
38196;SDS011;26543;51.976;4.616;2022-09-09T15:08:36;1.48;;;0.85;;
38196;SDS011;26543;51.976;4.616;2022-09-09T15:11:03;6.70;;;0.70;;
38196;SDS011;26543;51.976;4.616;2022-09-09T15:13:30;3.78;;;1.63;;
38196;SDS011;26543;51.976;4.616;2022-09-09T15:15:55;2.33;;;1.05;;
38196;SDS011;26543;51.976;4.616;2022-09-09T15:18:22;3.90;;;0.45;;
38196;SDS011;26543;51.976;4.616;2022-09-09T15:20:49;0.80;;;0.50;;
38196;SDS011;26543;51.976;4.616;2022-09-09T15:23:14;4.68;;;0.95;;
38196;SDS011;26543;51.976;4.616;2022-09-09T15:25:54;1.23;;;0.55;;
38196;SDS011;26543;51.976;4.616;2022-09-09T15:28:21;1.02;;;0.90;;
38196;SDS011;26543;51.976;4.616;2022-09-09T15:30:48;1.13;;;0.50;;
38196;SDS011;26543;51.976;4.616;2022-09-09T15:33:15;0.55;;;0.40;;
38196;SDS011;26543;51.976;4.616;2022-09-09T15:35:40;1.88;;;0.82;;
38196;SDS011;26543;51.976;4.616;2022-09-09T15:38:06;0.80;;;0.50;;
38196;SDS011;26543;51.976;4.616;2022-09-09T15:40:31;1.90;;;0.70;;
38196;SDS011;26543;51.976;4.616;2022-09-09T15:42:59;2.65;;;1.20;;
38196;SDS011;26543;51.976;4.616;2022-09-09T15:45:24;4.20;;;0.95;;
38196;SDS011;26543;51.976;4.616;2022-09-09T15:47:51;4.28;;;1.50;;
38196;SDS011;26543;51.976;4.616;2022-09-09T15:50:17;1.20;;;0.90;;
38196;SDS011;26543;51.976;4.616;2022-09-09T15:52:42;4.63;;;0.80;;
38196;SDS011;26543;51.976;4.616;2022-09-09T15:55:08;3.97;;;1.75;;
38196;SDS011;26543;51.976;4.616;2022-09-09T15:57:33;4.53;;;0.82;;
38196;SDS011;26543;51.976;4.616;2022-09-09T15:59:59;3.05;;;1.63;;
38196;SDS011;26543;51.976;4.616;2022-09-09T16:02:25;1.90;;;1.20;;
38196;SDS011;26543;51.976;4.616;2022-09-09T16:04:50;5.72;;;1.73;;
38196;SDS011;26543;51.976;4.616;2022-09-09T16:07:16;2.42;;;1.48;;
38196;SDS011;26543;51.976;4.616;2022-09-09T16:09:42;2.92;;;1.63;;
38196;SDS011;26543;51.976;4.616;2022-09-09T16:12:08;4.15;;;2.10;;
38196;SDS011;26543;51.976;4.616;2022-09-09T16:14:38;6.25;;;2.10;;
38196;SDS011;26543;51.976;4.616;2022-09-09T16:17:04;3.13;;;1.98;;
38196;SDS011;26543;51.976;4.616;2022-09-09T16:19:31;6.22;;;2.67;;
38196;SDS011;26543;51.976;4.616;2022-09-09T16:21:57;5.28;;;2.85;;
38196;SDS011;26543;51.976;4.616;2022-09-09T16:24:22;3.08;;;2.33;;
38196;SDS011;26543;51.976;4.616;2022-09-09T16:26:50;3.65;;;2.20;;
38196;SDS011;26543;51.976;4.616;2022-09-09T16:29:17;3.80;;;2.10;;
38196;SDS011;26543;51.976;4.616;2022-09-09T16:31:46;3.53;;;2.30;;
38196;SDS011;26543;51.976;4.616;2022-09-09T16:34:13;4.18;;;2.05;;
38196;SDS011;26543;51.976;4.616;2022-09-09T16:36:40;3.85;;;2.35;;
38196;SDS011;26543;51.976;4.616;2022-09-09T16:39:10;3.55;;;2.55;;
38196;SDS011;26543;51.976;4.616;2022-09-09T16:41:37;6.03;;;2.88;;
38196;SDS011;26543;51.976;4.616;2022-09-09T16:44:04;6.03;;;3.22;;
38196;SDS011;26543;51.976;4.616;2022-09-09T16:46:32;4.47;;;2.35;;
38196;SDS011;26543;51.976;4.616;2022-09-09T16:49:00;2.65;;;1.85;;
38196;SDS011;26543;51.976;4.616;2022-09-09T16:51:27;5.88;;;1.90;;
38196;SDS011;26543;51.976;4.616;2022-09-09T16:53:58;2.35;;;1.42;;
38196;SDS011;26543;51.976;4.616;2022-09-09T16:56:26;2.97;;;1.58;;
38196;SDS011;26543;51.976;4.616;2022-09-09T16:58:57;2.90;;;2.03;;
38196;SDS011;26543;51.976;4.616;2022-09-09T17:01:24;3.53;;;1.67;;
38196;SDS011;26543;51.976;4.616;2022-09-09T17:03:54;2.60;;;1.60;;
38196;SDS011;26543;51.976;4.616;2022-09-09T17:06:21;2.45;;;1.80;;
38196;SDS011;26543;51.976;4.616;2022-09-09T17:08:48;2.70;;;1.58;;
38196;SDS011;26543;51.976;4.616;2022-09-09T17:11:19;3.13;;;1.85;;
38196;SDS011;26543;51.976;4.616;2022-09-09T17:13:45;4.43;;;2.38;;
38196;SDS011;26543;51.976;4.616;2022-09-09T17:16:12;6.75;;;2.97;;
38196;SDS011;26543;51.976;4.616;2022-09-09T17:18:38;3.80;;;1.92;;
38196;SDS011;26543;51.976;4.616;2022-09-09T17:21:05;3.53;;;2.45;;
38196;SDS011;26543;51.976;4.616;2022-09-09T17:23:34;6.47;;;2.38;;
38196;SDS011;26543;51.976;4.616;2022-09-09T17:26:02;4.47;;;2.20;;
38196;SDS011;26543;51.976;4.616;2022-09-09T17:28:30;4.30;;;2.78;;
38196;SDS011;26543;51.976;4.616;2022-09-09T17:30:59;4.50;;;2.20;;
38196;SDS011;26543;51.976;4.616;2022-09-09T17:33:27;5.70;;;2.40;;